createdAt,value
2022-09-18T00:00:02.493Z,0.57
2022-09-18T00:02:31.919Z,0.60
2022-09-18T00:04:59.268Z,0.40
2022-09-18T00:07:26.827Z,0.60
2022-09-18T00:09:54.299Z,0.60
2022-09-18T00:12:21.605Z,0.50
2022-09-18T00:14:49.132Z,0.50
2022-09-18T00:17:16.539Z,0.53
2022-09-18T00:19:43.917Z,0.50
2022-09-18T00:22:11.248Z,0.60
2022-09-18T00:24:38.688Z,0.30
2022-09-18T00:27:06.167Z,0.50
2022-09-18T00:29:33.568Z,0.30
2022-09-18T00:32:00.941Z,0.53
2022-09-18T00:34:28.280Z,0.40
2022-09-18T00:36:55.655Z,0.47
2022-09-18T00:39:23.462Z,0.37
2022-09-18T00:41:50.752Z,0.60
2022-09-18T00:44:30.094Z,0.40
2022-09-18T00:47:17.675Z,0.67
2022-09-18T00:49:45.032Z,0.73
2022-09-18T00:52:12.936Z,0.50
2022-09-18T00:54:45.551Z,0.30
2022-09-18T00:57:15.157Z,0.70
2022-09-18T00:59:44.003Z,0.50
2022-09-18T01:02:12.296Z,0.50
2022-09-18T01:04:40.178Z,0.50
2022-09-18T01:07:13.623Z,0.60
2022-09-18T01:09:55.086Z,0.57
2022-09-18T01:12:48.351Z,0.50
2022-09-18T01:15:35.085Z,0.70
2022-09-18T01:18:17.126Z,0.73
2022-09-18T01:20:55.237Z,0.60
2022-09-18T01:23:38.245Z,0.50
2022-09-18T01:26:27.246Z,0.53
2022-09-18T01:29:00.325Z,0.60
2022-09-18T01:31:35.738Z,0.80
2022-09-18T01:34:07.968Z,0.60
2022-09-18T01:36:37.431Z,0.70
2022-09-18T01:39:10.126Z,1.23
2022-09-18T01:41:39.199Z,0.70
2022-09-18T01:44:12.942Z,0.80
2022-09-18T01:46:42.520Z,0.70
2022-09-18T01:49:12.440Z,0.73
2022-09-18T01:51:51.384Z,0.70
2022-09-18T01:54:21.316Z,0.60
2022-09-18T01:57:05.525Z,0.47
2022-09-18T01:59:35.393Z,0.70
2022-09-18T02:02:04.237Z,0.60
2022-09-18T02:04:34.244Z,0.80
2022-09-18T02:07:01.612Z,0.73
2022-09-18T02:09:29.523Z,1.10
2022-09-18T02:11:58.817Z,0.60
2022-09-18T02:14:46.869Z,0.60
2022-09-18T02:17:19.418Z,0.50
2022-09-18T02:19:49.834Z,0.60
2022-09-18T02:22:18.770Z,0.50
2022-09-18T02:24:46.964Z,0.70
2022-09-18T02:27:15.889Z,0.40
2022-09-18T02:29:45.029Z,0.43
2022-09-18T02:32:12.859Z,0.57
2022-09-18T02:34:42.403Z,0.60
2022-09-18T02:37:12.445Z,0.60
2022-09-18T02:39:46.645Z,0.60
2022-09-18T02:42:26.378Z,0.73
2022-09-18T02:44:56.681Z,0.70
2022-09-18T02:47:35.895Z,0.60
2022-09-18T02:50:09.762Z,0.97
2022-09-18T02:52:47.205Z,0.93
2022-09-18T02:55:40.917Z,0.53
2022-09-18T02:58:16.295Z,0.60
2022-09-18T03:00:44.984Z,0.43
2022-09-18T03:03:15.690Z,0.60
2022-09-18T03:05:43.021Z,0.40
2022-09-18T03:08:10.417Z,0.53
2022-09-18T03:10:37.789Z,0.60
2022-09-18T03:13:05.191Z,0.50
2022-09-18T03:15:32.579Z,0.50
2022-09-18T03:17:59.919Z,0.70
2022-09-18T03:20:27.279Z,0.60
2022-09-18T03:22:54.721Z,0.90
2022-09-18T03:25:21.971Z,0.70
2022-09-18T03:27:49.328Z,0.67
2022-09-18T03:30:16.751Z,0.40
2022-09-18T03:32:44.251Z,0.43
2022-09-18T03:35:11.633Z,0.47
2022-09-18T03:37:39.020Z,0.70
2022-09-18T03:40:06.622Z,0.40
2022-09-18T03:42:34.022Z,0.40
2022-09-18T03:45:02.391Z,0.50
2022-09-18T03:47:33.040Z,0.50
2022-09-18T03:50:04.004Z,1.03
2022-09-18T03:52:31.336Z,1.07
2022-09-18T03:54:58.685Z,1.10
2022-09-18T03:57:26.047Z,0.80
2022-09-18T03:59:54.040Z,0.60
2022-09-18T04:02:21.346Z,0.60
2022-09-18T04:04:49.003Z,0.80
2022-09-18T04:07:16.831Z,0.70
2022-09-18T04:09:45.192Z,1.10
2022-09-18T04:12:12.595Z,0.60
2022-09-18T04:14:39.940Z,2.00
2022-09-18T04:17:07.276Z,1.50
2022-09-18T04:19:34.616Z,1.30
2022-09-18T04:22:01.997Z,2.07
2022-09-18T04:24:29.353Z,1.23
2022-09-18T04:26:56.624Z,1.27
2022-09-18T04:29:24.042Z,0.70
2022-09-18T04:31:51.640Z,1.00
2022-09-18T04:34:19.008Z,0.83
2022-09-18T04:36:46.418Z,1.13
2022-09-18T04:39:13.824Z,1.10
2022-09-18T04:41:41.248Z,1.13
2022-09-18T04:44:08.578Z,1.10
2022-09-18T04:46:36.016Z,1.67
2022-09-18T04:49:05.451Z,1.80
2022-09-18T04:51:32.809Z,1.67
2022-09-18T04:54:00.304Z,1.57
2022-09-18T04:56:27.887Z,1.07
2022-09-18T04:58:55.209Z,1.13
2022-09-18T05:01:22.587Z,1.60
2022-09-18T05:03:49.980Z,1.60
2022-09-18T05:06:17.532Z,1.10
2022-09-18T05:08:44.979Z,0.90
2022-09-18T05:11:12.376Z,0.67
2022-09-18T05:13:40.873Z,0.93
2022-09-18T05:16:08.480Z,0.67
2022-09-18T05:18:36.015Z,1.10
2022-09-18T05:21:03.787Z,0.90
2022-09-18T05:23:31.164Z,0.80
2022-09-18T05:25:58.516Z,0.80
2022-09-18T05:28:25.901Z,0.77
2022-09-18T05:30:53.537Z,0.90
2022-09-18T05:33:20.822Z,1.20
2022-09-18T05:35:54.047Z,0.83
2022-09-18T05:38:21.496Z,0.57
2022-09-18T05:40:49.039Z,0.87
2022-09-18T05:43:16.916Z,0.90
2022-09-18T05:45:44.731Z,0.90
2022-09-18T05:48:15.405Z,0.70
2022-09-18T05:50:43.459Z,0.70
2022-09-18T05:53:15.513Z,1.07
2022-09-18T05:55:42.962Z,0.90
2022-09-18T05:58:14.417Z,0.87
2022-09-18T06:00:42.210Z,0.90
2022-09-18T06:03:13.729Z,0.90
2022-09-18T06:05:41.375Z,0.80
2022-09-18T06:08:10.134Z,0.80
2022-09-18T06:10:43.135Z,1.20
2022-09-18T06:13:15.831Z,1.20
2022-09-18T06:15:52.388Z,1.10
2022-09-18T06:18:20.020Z,1.10
2022-09-18T06:20:57.707Z,1.27
2022-09-18T06:23:26.005Z,1.10
2022-09-18T06:26:00.279Z,1.23
2022-09-18T06:28:27.991Z,1.43
2022-09-18T06:30:55.620Z,1.40
2022-09-18T06:33:23.114Z,1.00
2022-09-18T06:35:50.501Z,0.80
2022-09-18T06:38:17.913Z,0.90
2022-09-18T06:40:50.126Z,0.87
2022-09-18T06:43:17.847Z,1.80
2022-09-18T06:45:45.509Z,1.40
2022-09-18T06:48:12.827Z,1.00
2022-09-18T06:50:43.200Z,1.00
2022-09-18T06:53:12.817Z,1.13
2022-09-18T06:55:40.361Z,1.13
2022-09-18T06:58:07.696Z,0.80
2022-09-18T07:00:35.208Z,0.90
2022-09-18T07:03:03.631Z,1.07
2022-09-18T07:05:32.072Z,0.70
2022-09-18T07:07:59.903Z,0.60
2022-09-18T07:10:27.397Z,0.80
2022-09-18T07:12:58.167Z,0.80
2022-09-18T07:15:26.372Z,0.87
2022-09-18T07:17:56.871Z,0.90
2022-09-18T07:20:24.375Z,0.80
2022-09-18T07:22:56.161Z,0.60
2022-09-18T07:25:24.029Z,0.70
2022-09-18T07:27:51.398Z,0.70
2022-09-18T07:30:19.106Z,0.70
2022-09-18T07:32:46.737Z,0.60
2022-09-18T07:35:14.197Z,0.87
2022-09-18T07:37:41.616Z,0.60
2022-09-18T07:40:09.750Z,0.90
2022-09-18T07:42:37.342Z,1.20
2022-09-18T07:45:05.981Z,1.10
2022-09-18T07:47:33.642Z,1.07
2022-09-18T07:50:01.277Z,0.73
2022-09-18T07:52:28.656Z,0.70
2022-09-18T07:54:57.080Z,0.80
2022-09-18T07:57:24.571Z,0.60
2022-09-18T07:59:51.961Z,0.70
2022-09-18T08:02:19.454Z,0.63
2022-09-18T08:04:47.053Z,0.70
2022-09-18T08:07:14.393Z,0.80
2022-09-18T08:09:41.913Z,0.60
2022-09-18T08:12:09.303Z,0.93
2022-09-18T08:14:36.609Z,0.50
2022-09-18T08:17:04.501Z,0.70
2022-09-18T08:19:32.156Z,0.50
2022-09-18T08:21:59.528Z,0.43
2022-09-18T08:24:26.964Z,0.70
2022-09-18T08:26:57.308Z,0.50
2022-09-18T08:29:24.643Z,0.60
2022-09-18T08:31:52.086Z,0.50
2022-09-18T08:34:19.615Z,0.90
2022-09-18T08:36:50.044Z,0.60
2022-09-18T08:39:17.464Z,1.90
2022-09-18T08:41:53.072Z,0.70
2022-09-18T08:44:24.519Z,0.57
2022-09-18T08:47:06.217Z,0.50
2022-09-18T08:49:57.760Z,0.53
2022-09-18T08:52:26.797Z,0.50
2022-09-18T08:54:58.971Z,0.60
2022-09-18T08:57:38.472Z,0.53
2022-09-18T09:00:09.364Z,0.40
2022-09-18T09:02:49.291Z,0.93
2022-09-18T09:05:21.578Z,0.40
2022-09-18T09:08:07.372Z,0.70
2022-09-18T09:10:45.620Z,0.40
2022-09-18T09:13:33.132Z,0.60
2022-09-18T09:16:04.088Z,0.60
2022-09-18T09:18:50.136Z,0.67
2022-09-18T09:21:20.264Z,0.50
2022-09-18T09:24:17.267Z,0.60
2022-09-18T09:26:47.488Z,0.60
2022-09-18T09:29:19.766Z,0.53
2022-09-18T09:31:49.560Z,0.40
2022-09-18T09:34:16.967Z,0.60
2022-09-18T09:36:47.322Z,0.40
2022-09-18T09:39:18.233Z,0.40
2022-09-18T09:41:56.973Z,0.53
2022-09-18T09:44:30.083Z,0.37
2022-09-18T09:47:16.292Z,0.60
2022-09-18T09:49:52.125Z,0.50
2022-09-18T09:52:27.093Z,0.40
2022-09-18T09:55:02.050Z,0.33
2022-09-18T09:57:41.336Z,0.60
2022-09-18T10:00:17.940Z,0.60
2022-09-18T10:02:57.418Z,0.47
2022-09-18T10:05:28.726Z,0.40
2022-09-18T10:08:01.853Z,0.40
2022-09-18T10:10:33.073Z,0.50
2022-09-18T10:13:25.771Z,0.50
2022-09-18T10:16:02.682Z,0.40
2022-09-18T10:18:34.814Z,0.50
2022-09-18T10:21:14.227Z,0.30
2022-09-18T10:23:45.930Z,0.40
2022-09-18T10:26:18.898Z,0.57
2022-09-18T10:28:46.321Z,0.50
2022-09-18T10:31:14.519Z,0.50
2022-09-18T10:33:43.402Z,0.40
2022-09-18T10:36:10.812Z,0.60
2022-09-18T10:38:39.393Z,0.50
2022-09-18T10:41:18.122Z,0.50
2022-09-18T10:43:56.819Z,0.40
2022-09-18T10:46:25.651Z,0.60
2022-09-18T10:48:53.160Z,0.43
2022-09-18T10:51:21.834Z,0.70
2022-09-18T10:54:09.447Z,0.40
2022-09-18T10:56:36.911Z,0.70
2022-09-18T10:59:14.591Z,0.43
2022-09-18T11:01:44.836Z,0.60
2022-09-18T11:04:16.936Z,0.40
2022-09-18T11:06:45.225Z,0.40
2022-09-18T11:09:12.745Z,0.57
2022-09-18T11:11:45.008Z,0.50
2022-09-18T11:14:32.240Z,0.77
2022-09-18T11:17:01.495Z,0.60
2022-09-18T11:19:39.132Z,0.50
2022-09-18T11:22:08.222Z,0.53
2022-09-18T11:24:36.559Z,0.73
2022-09-18T11:27:23.147Z,0.50
2022-09-18T11:29:50.541Z,0.60
2022-09-18T11:32:26.216Z,0.63
2022-09-18T11:34:55.052Z,0.57
2022-09-18T11:37:47.542Z,0.50
2022-09-18T11:40:34.640Z,0.73
2022-09-18T11:43:05.718Z,0.53
2022-09-18T11:45:48.378Z,0.57
2022-09-18T11:48:23.891Z,0.43
2022-09-18T11:50:53.425Z,0.93
2022-09-18T11:53:31.367Z,0.50
2022-09-18T11:56:03.741Z,0.50
2022-09-18T11:58:37.592Z,0.40
2022-09-18T12:01:23.640Z,0.70
2022-09-18T12:03:57.425Z,0.50
2022-09-18T12:06:29.868Z,0.67
2022-09-18T12:09:11.851Z,0.60
2022-09-18T12:12:11.715Z,0.80
2022-09-18T12:14:44.646Z,0.60
2022-09-18T12:17:17.726Z,0.53
2022-09-18T12:19:49.418Z,0.60
2022-09-18T12:22:35.184Z,0.50
2022-09-18T12:25:10.718Z,0.53
2022-09-18T12:27:38.243Z,0.90
2022-09-18T12:30:13.283Z,0.50
2022-09-18T12:32:58.838Z,0.70
2022-09-18T12:35:39.714Z,0.70
2022-09-18T12:38:21.878Z,0.70
2022-09-18T12:41:04.721Z,0.70
2022-09-18T12:43:54.905Z,0.70
2022-09-18T12:46:45.196Z,0.90
2022-09-18T12:49:18.199Z,0.60
2022-09-18T12:52:08.808Z,0.82
2022-09-18T12:54:36.270Z,0.73
2022-09-18T12:57:22.470Z,0.60
2022-09-18T13:00:25.096Z,0.80
2022-09-18T13:02:54.954Z,0.80
2022-09-18T13:05:30.584Z,0.77
2022-09-18T13:08:18.179Z,0.70
2022-09-18T13:10:47.301Z,0.57
2022-09-18T13:13:17.359Z,0.90
2022-09-18T13:16:06.828Z,0.90
2022-09-18T13:18:45.598Z,1.02
2022-09-18T13:21:33.580Z,0.98
2022-09-18T13:24:01.578Z,0.82
2022-09-18T13:26:31.328Z,0.80
2022-09-18T13:28:59.304Z,1.00
2022-09-18T13:31:28.042Z,0.90
2022-09-18T13:33:55.595Z,0.63
2022-09-18T13:36:28.475Z,0.80
2022-09-18T13:38:57.709Z,1.00
2022-09-18T13:41:25.378Z,0.90
2022-09-18T13:43:55.509Z,0.80
2022-09-18T13:46:37.337Z,0.90
2022-09-18T13:49:14.337Z,0.77
2022-09-18T13:51:41.863Z,0.80
2022-09-18T13:54:12.401Z,0.90
2022-09-18T13:56:58.484Z,1.20
2022-09-18T13:59:45.017Z,0.95
2022-09-18T14:02:27.415Z,0.80
2022-09-18T14:04:58.906Z,1.10
2022-09-18T14:07:26.264Z,1.40
2022-09-18T14:10:03.087Z,1.55
2022-09-18T14:12:32.941Z,1.13
2022-09-18T14:15:21.527Z,1.30
2022-09-18T14:18:07.074Z,1.10
2022-09-18T14:20:35.169Z,1.30
2022-09-18T14:23:41.125Z,1.08
2022-09-18T14:26:09.200Z,1.40
2022-09-18T14:28:38.089Z,1.30
2022-09-18T14:31:25.769Z,1.10
2022-09-18T14:33:54.007Z,1.17
2022-09-18T14:36:21.255Z,1.30
2022-09-18T14:38:48.747Z,1.45
2022-09-18T14:41:21.494Z,1.52
2022-09-18T14:44:01.897Z,1.73
2022-09-18T14:46:29.677Z,1.45
2022-09-18T14:48:57.162Z,1.33
2022-09-18T14:51:28.430Z,1.40
2022-09-18T14:53:57.076Z,1.45
2022-09-18T14:56:31.591Z,1.45
2022-09-18T14:59:00.400Z,1.55
2022-09-18T15:01:29.555Z,2.00
2022-09-18T15:03:58.755Z,2.42
2022-09-18T15:06:26.123Z,2.17
2022-09-18T15:08:55.055Z,2.05
2022-09-18T15:11:24.473Z,2.45
2022-09-18T15:13:52.674Z,2.42
2022-09-18T15:16:33.082Z,1.88
2022-09-18T15:19:01.031Z,2.90
2022-09-18T15:21:33.512Z,2.10
2022-09-18T15:24:02.396Z,2.03
2022-09-18T15:26:39.927Z,3.20
2022-09-18T15:29:13.334Z,2.17
2022-09-18T15:31:41.103Z,3.10
2022-09-18T15:34:23.338Z,2.72
2022-09-18T15:36:57.894Z,1.60
2022-09-18T15:39:33.066Z,2.47
2022-09-18T15:42:26.498Z,2.03
2022-09-18T15:44:53.986Z,2.17
2022-09-18T15:47:41.328Z,2.05
2022-09-18T15:50:17.644Z,2.08
2022-09-18T15:53:03.124Z,1.90
2022-09-18T15:56:02.981Z,2.05
2022-09-18T15:58:44.631Z,2.80
2022-09-18T16:01:20.501Z,2.40
2022-09-18T16:03:48.199Z,2.67
2022-09-18T16:06:23.009Z,2.00
2022-09-18T16:08:52.035Z,1.80
2022-09-18T16:11:38.084Z,1.75
2022-09-18T16:14:25.429Z,2.90
2022-09-18T16:16:52.838Z,2.58
2022-09-18T16:19:20.152Z,2.35
2022-09-18T16:21:47.502Z,2.45
2022-09-18T16:24:32.101Z,2.50
2022-09-18T16:27:06.014Z,2.20
2022-09-18T16:29:34.357Z,1.90
2022-09-18T16:32:01.873Z,2.50
2022-09-18T16:34:29.765Z,2.03
2022-09-18T16:36:57.143Z,2.20
2022-09-18T16:39:27.504Z,2.22
2022-09-18T16:41:54.923Z,2.25
2022-09-18T16:44:22.459Z,2.08
2022-09-18T16:46:57.453Z,2.17
2022-09-18T16:49:26.753Z,2.25
2022-09-18T16:51:55.676Z,2.70
2022-09-18T16:54:23.118Z,2.00
2022-09-18T16:56:53.968Z,2.42
2022-09-18T16:59:22.531Z,2.08
2022-09-18T17:02:03.294Z,2.28
2022-09-18T17:04:31.047Z,2.30
2022-09-18T17:07:01.630Z,2.40
2022-09-18T17:09:29.078Z,3.03
2022-09-18T17:11:56.635Z,1.87
2022-09-18T17:14:24.340Z,2.37
2022-09-18T17:16:52.399Z,2.27
2022-09-18T17:19:19.855Z,2.33
2022-09-18T17:21:47.377Z,2.10
2022-09-18T17:24:14.976Z,1.90
2022-09-18T17:26:42.696Z,1.97
2022-09-18T17:29:11.472Z,2.10
2022-09-18T17:31:38.957Z,2.00
2022-09-18T17:34:06.488Z,2.10
2022-09-18T17:36:36.955Z,2.23
2022-09-18T17:39:04.791Z,2.00
2022-09-18T17:41:32.254Z,1.93
2022-09-18T17:43:59.866Z,2.10
2022-09-18T17:46:27.246Z,2.30
2022-09-18T17:48:55.335Z,1.90
2022-09-18T17:51:27.692Z,1.80
2022-09-18T17:54:00.978Z,2.00
2022-09-18T17:56:30.092Z,1.93
2022-09-18T17:59:01.654Z,1.80
2022-09-18T18:01:29.946Z,1.60
2022-09-18T18:03:58.318Z,2.00
2022-09-18T18:06:25.931Z,2.00
2022-09-18T18:08:53.669Z,2.10
2022-09-18T18:11:22.573Z,2.20
2022-09-18T18:13:50.636Z,1.77
2022-09-18T18:16:23.431Z,2.30
2022-09-18T18:18:51.987Z,1.60
2022-09-18T18:21:19.623Z,1.93
2022-09-18T18:23:47.398Z,1.87
2022-09-18T18:26:14.820Z,1.90
2022-09-18T18:28:45.125Z,1.90
2022-09-18T18:31:15.114Z,1.70
2022-09-18T18:33:43.077Z,1.73
2022-09-18T18:36:15.022Z,2.00
2022-09-18T18:38:43.444Z,1.80
2022-09-18T18:41:11.217Z,1.60
2022-09-18T18:43:41.022Z,1.70
2022-09-18T18:46:10.662Z,1.57
2022-09-18T18:48:38.939Z,1.30
2022-09-18T18:51:07.382Z,1.57
2022-09-18T18:53:36.219Z,1.80
2022-09-18T18:56:03.739Z,1.77
2022-09-18T18:58:31.415Z,1.30
2022-09-18T19:01:05.909Z,1.60
2022-09-18T19:03:38.070Z,1.40
2022-09-18T19:06:06.780Z,1.80
2022-09-18T19:08:36.174Z,1.40
2022-09-18T19:11:05.192Z,1.60
2022-09-18T19:13:43.098Z,1.10
2022-09-18T19:16:10.595Z,1.30
2022-09-18T19:18:38.416Z,1.40
2022-09-18T19:21:06.161Z,1.47
2022-09-18T19:23:33.542Z,1.53
2022-09-18T19:26:02.135Z,1.50
2022-09-18T19:28:30.128Z,1.20
2022-09-18T19:31:04.759Z,1.87
2022-09-18T19:33:33.351Z,1.50
2022-09-18T19:36:05.135Z,1.40
2022-09-18T19:38:36.408Z,1.30
2022-09-18T19:41:19.741Z,1.43
2022-09-18T19:43:50.361Z,1.17
2022-09-18T19:46:23.312Z,1.37
2022-09-18T19:48:50.907Z,1.63
2022-09-18T19:51:18.281Z,1.70
2022-09-18T19:53:45.810Z,1.40
2022-09-18T19:56:33.063Z,1.27
2022-09-18T19:59:03.371Z,1.30
2022-09-18T20:01:31.156Z,1.40
2022-09-18T20:03:58.939Z,1.33
2022-09-18T20:06:26.311Z,1.13
2022-09-18T20:08:53.758Z,1.47
2022-09-18T20:11:21.163Z,4.00
2022-09-18T20:13:51.840Z,1.20
2022-09-18T20:16:19.756Z,1.30
2022-09-18T20:18:48.204Z,1.53
2022-09-18T20:21:16.596Z,1.20
2022-09-18T20:23:43.997Z,1.10
2022-09-18T20:26:12.702Z,1.33
2022-09-18T20:28:40.484Z,1.50
2022-09-18T20:31:09.128Z,1.50
2022-09-18T20:33:36.586Z,0.97
2022-09-18T20:36:04.207Z,1.30
2022-09-18T20:38:32.116Z,0.93
2022-09-18T20:41:04.828Z,1.47
2022-09-18T20:43:35.826Z,1.27
2022-09-18T20:46:05.404Z,1.20
2022-09-18T20:48:36.798Z,1.30
2022-09-18T20:51:09.287Z,1.33
2022-09-18T20:53:39.403Z,1.30
2022-09-18T20:56:07.689Z,1.30
2022-09-18T20:58:35.499Z,1.43
2022-09-18T21:01:20.324Z,1.10
2022-09-18T21:03:48.727Z,1.07
2022-09-18T21:06:22.865Z,1.50
2022-09-18T21:08:53.650Z,1.10
2022-09-18T21:11:23.286Z,1.30
2022-09-18T21:14:01.159Z,1.23
2022-09-18T21:16:29.733Z,1.20
2022-09-18T21:19:00.179Z,1.50
2022-09-18T21:21:28.687Z,1.50
2022-09-18T21:24:01.508Z,1.23
2022-09-18T21:26:35.590Z,1.30
2022-09-18T21:29:04.873Z,2.90
2022-09-18T21:31:33.578Z,1.40
2022-09-18T21:34:01.759Z,1.20
2022-09-18T21:36:29.285Z,1.50
2022-09-18T21:38:56.740Z,1.27
2022-09-18T21:41:25.339Z,1.13
2022-09-18T21:43:54.161Z,0.97
2022-09-18T21:46:22.416Z,0.90
2022-09-18T21:48:54.489Z,1.20
2022-09-18T21:51:24.732Z,1.17
2022-09-18T21:53:52.092Z,1.47
2022-09-18T21:56:20.571Z,1.90
2022-09-18T21:58:48.516Z,1.50
2022-09-18T22:01:19.144Z,1.43
2022-09-18T22:03:54.787Z,1.63
2022-09-18T22:06:26.392Z,1.60
2022-09-18T22:08:54.992Z,1.47
2022-09-18T22:11:24.334Z,1.37
2022-09-18T22:13:54.841Z,1.60
2022-09-18T22:16:32.291Z,1.10
2022-09-18T22:18:59.992Z,1.60
2022-09-18T22:21:29.202Z,1.73
2022-09-18T22:23:58.545Z,2.07
2022-09-18T22:26:26.992Z,1.70
2022-09-18T22:28:55.807Z,1.90
2022-09-18T22:31:24.834Z,1.87
2022-09-18T22:33:56.588Z,1.47
2022-09-18T22:36:25.096Z,1.67
2022-09-18T22:38:55.924Z,1.67
2022-09-18T22:41:23.332Z,1.80
2022-09-18T22:43:54.214Z,1.63
2022-09-18T22:46:21.631Z,1.70
2022-09-18T22:48:49.656Z,1.67
2022-09-18T22:51:21.098Z,1.80
2022-09-18T22:53:52.572Z,1.93
2022-09-18T22:56:20.744Z,1.90
2022-09-18T22:58:48.454Z,1.70
2022-09-18T23:01:37.214Z,1.43
2022-09-18T23:04:05.425Z,1.90
2022-09-18T23:06:33.671Z,1.50
2022-09-18T23:09:03.290Z,2.00
2022-09-18T23:11:31.467Z,1.57
2022-09-18T23:14:00.643Z,1.60
2022-09-18T23:16:28.985Z,1.63
2022-09-18T23:18:58.164Z,1.77
2022-09-18T23:21:27.185Z,1.80
2022-09-18T23:23:55.517Z,1.90
2022-09-18T23:26:24.520Z,1.43
2022-09-18T23:28:53.797Z,1.73
2022-09-18T23:31:25.829Z,1.93
2022-09-18T23:33:57.204Z,1.67
2022-09-18T23:36:25.920Z,1.80
2022-09-18T23:38:56.813Z,1.87
2022-09-18T23:41:24.245Z,1.60
2022-09-18T23:43:53.303Z,1.57
2022-09-18T23:46:21.762Z,1.60
2022-09-18T23:48:55.042Z,1.33
2022-09-18T23:51:26.363Z,1.77
2022-09-18T23:53:53.954Z,1.90
2022-09-18T23:56:23.507Z,1.50
2022-09-18T23:59:01.878Z,1.70
